sensor_id;sensor_type;location;lat;lon;timestamp;temperature;humidity
4079;DHT22;2054;47.858;11.156;2024-02-26T03:47:35;2.30;99.90
4079;DHT22;2054;47.858;11.156;2024-02-26T03:50:02;2.20;99.90
4079;DHT22;2054;47.858;11.156;2024-02-26T03:52:30;2.30;99.90
4079;DHT22;2054;47.858;11.156;2024-02-26T03:54:57;2.20;99.90
4079;DHT22;2054;47.858;11.156;2024-02-26T03:57:24;2.30;99.90
4079;DHT22;2054;47.858;11.156;2024-02-26T03:59:51;2.40;99.90
4079;DHT22;2054;47.858;11.156;2024-02-26T04:02:18;2.40;99.90
4079;DHT22;2054;47.858;11.156;2024-02-26T04:04:47;2.40;99.90
4079;DHT22;2054;47.858;11.156;2024-02-26T04:07:14;2.40;99.90
4079;DHT22;2054;47.858;11.156;2024-02-26T04:09:42;2.30;99.90
4079;DHT22;2054;47.858;11.156;2024-02-26T04:12:09;2.40;99.90
4079;DHT22;2054;47.858;11.156;2024-02-26T04:14:36;2.40;99.90
4079;DHT22;2054;47.858;11.156;2024-02-26T04:17:04;2.40;99.90
4079;DHT22;2054;47.858;11.156;2024-02-26T04:19:31;2.50;99.90
4079;DHT22;2054;47.858;11.156;2024-02-26T04:21:59;2.50;99.90
4079;DHT22;2054;47.858;11.156;2024-02-26T04:24:26;2.50;99.90
4079;DHT22;2054;47.858;11.156;2024-02-26T04:26:53;2.40;99.90
4079;DHT22;2054;47.858;11.156;2024-02-26T04:29:20;2.40;99.90
4079;DHT22;2054;47.858;11.156;2024-02-26T04:31:47;2.40;99.90
4079;DHT22;2054;47.858;11.156;2024-02-26T04:34:14;2.40;99.90
4079;DHT22;2054;47.858;11.156;2024-02-26T04:36:41;2.30;99.90
4079;DHT22;2054;47.858;11.156;2024-02-26T04:39:10;2.20;99.90
4079;DHT22;2054;47.858;11.156;2024-02-26T04:41:37;2.20;99.90
4079;DHT22;2054;47.858;11.156;2024-02-26T04:44:04;2.10;99.90
4079;DHT22;2054;47.858;11.156;2024-02-26T04:46:31;2.10;99.90
4079;DHT22;2054;47.858;11.156;2024-02-26T04:48:58;2.10;99.90
4079;DHT22;2054;47.858;11.156;2024-02-26T04:51:25;2.10;99.90
4079;DHT22;2054;47.858;11.156;2024-02-26T04:53:52;2.00;99.90
4079;DHT22;2054;47.858;11.156;2024-02-26T04:56:21;2.00;99.90
4079;DHT22;2054;47.858;11.156;2024-02-26T04:58:48;2.00;99.90
4079;DHT22;2054;47.858;11.156;2024-02-26T05:01:16;2.00;99.90
4079;DHT22;2054;47.858;11.156;2024-02-26T05:03:43;1.90;99.90
4079;DHT22;2054;47.858;11.156;2024-02-26T05:06:10;2.00;99.90
4079;DHT22;2054;47.858;11.156;2024-02-26T05:08:37;2.00;99.90
4079;DHT22;2054;47.858;11.156;2024-02-26T05:11:05;2.00;99.90
4079;DHT22;2054;47.858;11.156;2024-02-26T05:13:33;2.00;99.90
4079;DHT22;2054;47.858;11.156;2024-02-26T05:16:00;2.00;99.90
4079;DHT22;2054;47.858;11.156;2024-02-26T05:18:27;2.00;99.90
4079;DHT22;2054;47.858;11.156;2024-02-26T05:20:54;1.80;99.90
4079;DHT22;2054;47.858;11.156;2024-02-26T05:23:21;1.70;99.90
4079;DHT22;2054;47.858;11.156;2024-02-26T05:25:49;1.80;99.90
4079;DHT22;2054;47.858;11.156;2024-02-26T05:28:15;1.80;99.90
4079;DHT22;2054;47.858;11.156;2024-02-26T05:30:47;1.90;99.90
4079;DHT22;2054;47.858;11.156;2024-02-26T05:33:14;2.00;99.90
4079;DHT22;2054;47.858;11.156;2024-02-26T05:35:41;2.00;99.90
4079;DHT22;2054;47.858;11.156;2024-02-26T05:38:08;2.00;99.90
4079;DHT22;2054;47.858;11.156;2024-02-26T05:40:34;2.00;99.90
4079;DHT22;2054;47.858;11.156;2024-02-26T05:43:02;2.10;99.90
4079;DHT22;2054;47.858;11.156;2024-02-26T05:45:29;2.30;99.90
4079;DHT22;2054;47.858;11.156;2024-02-26T05:48:00;2.40;99.90
4079;DHT22;2054;47.858;11.156;2024-02-26T05:50:27;2.50;99.90
4079;DHT22;2054;47.858;11.156;2024-02-26T05:52:54;2.30;99.90
4079;DHT22;2054;47.858;11.156;2024-02-26T05:55:21;2.10;99.90
4079;DHT22;2054;47.858;11.156;2024-02-26T05:57:48;2.20;99.90
4079;DHT22;2054;47.858;11.156;2024-02-26T06:00:15;2.30;99.90
4079;DHT22;2054;47.858;11.156;2024-02-26T06:02:42;2.50;99.90
4079;DHT22;2054;47.858;11.156;2024-02-26T06:05:11;2.60;99.90
4079;DHT22;2054;47.858;11.156;2024-02-26T06:07:38;2.60;99.90
4079;DHT22;2054;47.858;11.156;2024-02-26T06:10:06;2.70;99.90
4079;DHT22;2054;47.858;11.156;2024-02-26T06:12:35;2.80;99.90
4079;DHT22;2054;47.858;11.156;2024-02-26T06:15:03;2.90;99.90
4079;DHT22;2054;47.858;11.156;2024-02-26T06:17:30;2.90;99.90
4079;DHT22;2054;47.858;11.156;2024-02-26T06:19:57;2.90;99.90
4079;DHT22;2054;47.858;11.156;2024-02-26T06:22:26;3.00;99.90
4079;DHT22;2054;47.858;11.156;2024-02-26T06:24:53;3.00;99.90
4079;DHT22;2054;47.858;11.156;2024-02-26T06:27:20;3.00;99.90
4079;DHT22;2054;47.858;11.156;2024-02-26T06:29:47;3.00;99.90
4079;DHT22;2054;47.858;11.156;2024-02-26T06:32:14;3.10;99.90
4079;DHT22;2054;47.858;11.156;2024-02-26T06:34:41;3.10;99.90
4079;DHT22;2054;47.858;11.156;2024-02-26T06:37:08;3.20;99.90
4079;DHT22;2054;47.858;11.156;2024-02-26T06:39:36;3.20;99.90
4079;DHT22;2054;47.858;11.156;2024-02-26T06:42:04;3.30;99.90
4079;DHT22;2054;47.858;11.156;2024-02-26T06:44:32;3.40;99.90
4079;DHT22;2054;47.858;11.156;2024-02-26T06:46:58;3.40;99.90
4079;DHT22;2054;47.858;11.156;2024-02-26T06:49:27;3.50;99.90
4079;DHT22;2054;47.858;11.156;2024-02-26T06:51:54;3.60;99.90
4079;DHT22;2054;47.858;11.156;2024-02-26T06:54:21;3.70;99.90
4079;DHT22;2054;47.858;11.156;2024-02-26T06:56:50;3.80;99.90
4079;DHT22;2054;47.858;11.156;2024-02-26T06:59:17;4.00;99.90
4079;DHT22;2054;47.858;11.156;2024-02-26T07:01:45;4.10;99.90
4079;DHT22;2054;47.858;11.156;2024-02-26T07:04:12;4.20;99.90
4079;DHT22;2054;47.858;11.156;2024-02-26T07:06:39;4.20;99.90
4079;DHT22;2054;47.858;11.156;2024-02-26T07:09:07;4.30;99.90
4079;DHT22;2054;47.858;11.156;2024-02-26T07:11:34;4.40;99.90
4079;DHT22;2054;47.858;11.156;2024-02-26T07:14:02;4.50;99.90
4079;DHT22;2054;47.858;11.156;2024-02-26T07:16:29;4.70;99.90
4079;DHT22;2054;47.858;11.156;2024-02-26T07:18:56;4.60;99.90
4079;DHT22;2054;47.858;11.156;2024-02-26T07:21:23;4.50;99.90
4079;DHT22;2054;47.858;11.156;2024-02-26T07:23:50;4.40;99.90
4079;DHT22;2054;47.858;11.156;2024-02-26T07:26:17;4.30;99.90
4079;DHT22;2054;47.858;11.156;2024-02-26T07:28:45;4.40;99.90
4079;DHT22;2054;47.858;11.156;2024-02-26T07:31:13;4.40;99.90
4079;DHT22;2054;47.858;11.156;2024-02-26T07:33:40;4.40;99.90
4079;DHT22;2054;47.858;11.156;2024-02-26T07:36:07;4.40;99.90
4079;DHT22;2054;47.858;11.156;2024-02-26T07:38:34;4.50;99.90
4079;DHT22;2054;47.858;11.156;2024-02-26T07:41:02;4.70;99.90
4079;DHT22;2054;47.858;11.156;2024-02-26T07:43:29;4.50;99.90
4079;DHT22;2054;47.858;11.156;2024-02-26T07:45:56;4.50;99.90
4079;DHT22;2054;47.858;11.156;2024-02-26T07:48:25;4.40;99.90
4079;DHT22;2054;47.858;11.156;2024-02-26T07:50:52;4.40;99.90
4079;DHT22;2054;47.858;11.156;2024-02-26T07:53:19;4.50;99.90
4079;DHT22;2054;47.858;11.156;2024-02-26T07:55:46;4.50;99.90
4079;DHT22;2054;47.858;11.156;2024-02-26T07:58:13;4.70;99.90
4079;DHT22;2054;47.858;11.156;2024-02-26T08:00:39;4.80;99.90
4079;DHT22;2054;47.858;11.156;2024-02-26T08:03:06;5.00;99.90
4079;DHT22;2054;47.858;11.156;2024-02-26T08:05:35;5.20;99.90
4079;DHT22;2054;47.858;11.156;2024-02-26T08:08:06;5.40;99.90
4079;DHT22;2054;47.858;11.156;2024-02-26T08:10:33;5.70;99.90
4079;DHT22;2054;47.858;11.156;2024-02-26T08:13:00;5.80;99.90
4079;DHT22;2054;47.858;11.156;2024-02-26T08:15:30;5.90;99.90
4079;DHT22;2054;47.858;11.156;2024-02-26T08:17:58;6.00;99.90
4079;DHT22;2054;47.858;11.156;2024-02-26T08:20:26;6.00;99.90
4079;DHT22;2054;47.858;11.156;2024-02-26T08:22:54;6.10;99.90
4079;DHT22;2054;47.858;11.156;2024-02-26T08:25:21;6.20;99.90
4079;DHT22;2054;47.858;11.156;2024-02-26T08:27:49;6.30;99.90
4079;DHT22;2054;47.858;11.156;2024-02-26T08:30:16;6.40;99.90
4079;DHT22;2054;47.858;11.156;2024-02-26T08:32:45;6.40;99.90
4079;DHT22;2054;47.858;11.156;2024-02-26T08:35:12;6.30;99.90
4079;DHT22;2054;47.858;11.156;2024-02-26T08:37:39;6.30;99.90
4079;DHT22;2054;47.858;11.156;2024-02-26T08:40:09;6.40;99.90
4079;DHT22;2054;47.858;11.156;2024-02-26T08:42:36;6.40;99.90
4079;DHT22;2054;47.858;11.156;2024-02-26T08:45:03;6.40;99.90
4079;DHT22;2054;47.858;11.156;2024-02-26T08:47:30;6.20;99.90
4079;DHT22;2054;47.858;11.156;2024-02-26T08:49:58;6.00;99.90
4079;DHT22;2054;47.858;11.156;2024-02-26T08:52:25;5.90;99.90
4079;DHT22;2054;47.858;11.156;2024-02-26T08:54:51;6.10;99.90
4079;DHT22;2054;47.858;11.156;2024-02-26T08:57:20;6.00;99.90
4079;DHT22;2054;47.858;11.156;2024-02-26T08:59:47;6.20;99.90
4079;DHT22;2054;47.858;11.156;2024-02-26T09:02:13;6.30;99.90
4079;DHT22;2054;47.858;11.156;2024-02-26T09:04:40;6.40;99.90
4079;DHT22;2054;47.858;11.156;2024-02-26T09:07:07;6.60;99.90
4079;DHT22;2054;47.858;11.156;2024-02-26T09:09:35;6.70;99.90
4079;DHT22;2054;47.858;11.156;2024-02-26T09:12:03;7.10;99.90
4079;DHT22;2054;47.858;11.156;2024-02-26T09:14:32;6.90;99.90
4079;DHT22;2054;47.858;11.156;2024-02-26T09:16:58;7.00;99.90
4079;DHT22;2054;47.858;11.156;2024-02-26T09:19:26;7.30;99.90
4079;DHT22;2054;47.858;11.156;2024-02-26T09:21:53;7.50;99.90
4079;DHT22;2054;47.858;11.156;2024-02-26T09:24:22;7.70;99.90
4079;DHT22;2054;47.858;11.156;2024-02-26T09:26:50;7.90;99.90
4079;DHT22;2054;47.858;11.156;2024-02-26T09:29:17;8.10;99.90
4079;DHT22;2054;47.858;11.156;2024-02-26T09:31:45;8.20;99.90
4079;DHT22;2054;47.858;11.156;2024-02-26T09:34:13;8.00;99.90
4079;DHT22;2054;47.858;11.156;2024-02-26T09:36:40;7.90;99.90
4079;DHT22;2054;47.858;11.156;2024-02-26T09:39:07;7.90;99.90
4079;DHT22;2054;47.858;11.156;2024-02-26T09:41:36;7.90;99.90
4079;DHT22;2054;47.858;11.156;2024-02-26T09:44:04;8.00;99.90
4079;DHT22;2054;47.858;11.156;2024-02-26T09:46:32;8.10;99.90
4079;DHT22;2054;47.858;11.156;2024-02-26T09:49:00;8.40;99.90
4079;DHT22;2054;47.858;11.156;2024-02-26T09:51:28;8.80;99.90
4079;DHT22;2054;47.858;11.156;2024-02-26T09:53:56;8.90;99.90
4079;DHT22;2054;47.858;11.156;2024-02-26T09:56:26;9.20;99.90
4079;DHT22;2054;47.858;11.156;2024-02-26T09:58:54;9.40;99.90
4079;DHT22;2054;47.858;11.156;2024-02-26T10:01:22;9.60;99.90
4079;DHT22;2054;47.858;11.156;2024-02-26T10:03:54;9.80;99.90
4079;DHT22;2054;47.858;11.156;2024-02-26T10:06:24;9.70;99.90
4079;DHT22;2054;47.858;11.156;2024-02-26T10:08:54;9.60;99.90
4079;DHT22;2054;47.858;11.156;2024-02-26T10:11:22;9.50;99.90
4079;DHT22;2054;47.858;11.156;2024-02-26T10:13:49;9.30;99.90
4079;DHT22;2054;47.858;11.156;2024-02-26T10:16:16;9.20;99.90
4079;DHT22;2054;47.858;11.156;2024-02-26T10:18:47;9.40;99.90
4079;DHT22;2054;47.858;11.156;2024-02-26T10:21:16;9.70;99.90
4079;DHT22;2054;47.858;11.156;2024-02-26T10:23:45;10.10;99.90
4079;DHT22;2054;47.858;11.156;2024-02-26T10:26:14;10.40;99.90
4079;DHT22;2054;47.858;11.156;2024-02-26T10:28:42;10.80;99.90
4079;DHT22;2054;47.858;11.156;2024-02-26T10:31:09;11.30;99.90
4079;DHT22;2054;47.858;11.156;2024-02-26T10:33:37;11.50;99.90
4079;DHT22;2054;47.858;11.156;2024-02-26T10:36:06;11.70;99.90
4079;DHT22;2054;47.858;11.156;2024-02-26T10:38:34;11.90;99.90
4079;DHT22;2054;47.858;11.156;2024-02-26T10:41:03;11.60;99.90
4079;DHT22;2054;47.858;11.156;2024-02-26T10:43:30;11.10;99.90
4079;DHT22;2054;47.858;11.156;2024-02-26T10:45:57;10.70;99.90
4079;DHT22;2054;47.858;11.156;2024-02-26T10:48:24;10.70;99.90
4079;DHT22;2054;47.858;11.156;2024-02-26T10:50:51;10.70;99.90
4079;DHT22;2054;47.858;11.156;2024-02-26T10:53:20;10.80;99.90
4079;DHT22;2054;47.858;11.156;2024-02-26T10:55:49;10.90;99.90
4079;DHT22;2054;47.858;11.156;2024-02-26T10:58:20;11.10;99.90
4079;DHT22;2054;47.858;11.156;2024-02-26T11:00:49;11.30;99.90
4079;DHT22;2054;47.858;11.156;2024-02-26T11:03:16;11.40;99.90
4079;DHT22;2054;47.858;11.156;2024-02-26T11:05:47;11.50;99.90
4079;DHT22;2054;47.858;11.156;2024-02-26T11:08:15;11.70;99.90
4079;DHT22;2054;47.858;11.156;2024-02-26T11:10:42;12.00;99.90
4079;DHT22;2054;47.858;11.156;2024-02-26T11:13:12;12.10;99.90
4079;DHT22;2054;47.858;11.156;2024-02-26T11:15:43;12.20;99.90
4079;DHT22;2054;47.858;11.156;2024-02-26T11:18:11;12.20;99.90
4079;DHT22;2054;47.858;11.156;2024-02-26T11:20:40;12.40;99.90
4079;DHT22;2054;47.858;11.156;2024-02-26T11:23:08;12.50;99.90
4079;DHT22;2054;47.858;11.156;2024-02-26T11:25:35;12.70;99.90
4079;DHT22;2054;47.858;11.156;2024-02-26T11:28:06;13.00;99.90
4079;DHT22;2054;47.858;11.156;2024-02-26T11:30:36;13.00;99.90
4079;DHT22;2054;47.858;11.156;2024-02-26T11:33:08;13.00;99.90
4079;DHT22;2054;47.858;11.156;2024-02-26T11:35:37;12.90;99.90
4079;DHT22;2054;47.858;11.156;2024-02-26T11:38:06;12.90;99.90
4079;DHT22;2054;47.858;11.156;2024-02-26T11:40:33;13.00;99.90
4079;DHT22;2054;47.858;11.156;2024-02-26T11:43:05;13.10;99.90
4079;DHT22;2054;47.858;11.156;2024-02-26T11:45:50;13.20;99.90
4079;DHT22;2054;47.858;11.156;2024-02-26T11:48:30;13.50;99.90
4079;DHT22;2054;47.858;11.156;2024-02-26T11:50:58;13.80;97.70
4079;DHT22;2054;47.858;11.156;2024-02-26T11:53:27;14.10;95.30
4079;DHT22;2054;47.858;11.156;2024-02-26T11:56:22;14.20;93.80
4079;DHT22;2054;47.858;11.156;2024-02-26T11:58:53;14.50;91.20
4079;DHT22;2054;47.858;11.156;2024-02-26T12:01:36;14.70;90.70
4079;DHT22;2054;47.858;11.156;2024-02-26T12:04:05;14.70;90.80
4079;DHT22;2054;47.858;11.156;2024-02-26T12:06:44;14.70;90.60
4079;DHT22;2054;47.858;11.156;2024-02-26T12:09:12;14.70;87.80
4079;DHT22;2054;47.858;11.156;2024-02-26T12:11:40;14.80;88.50
4079;DHT22;2054;47.858;11.156;2024-02-26T12:14:08;14.80;87.20
4079;DHT22;2054;47.858;11.156;2024-02-26T12:16:36;14.80;87.00
4079;DHT22;2054;47.858;11.156;2024-02-26T12:19:07;14.90;85.90
4079;DHT22;2054;47.858;11.156;2024-02-26T12:21:35;14.90;87.30
4079;DHT22;2054;47.858;11.156;2024-02-26T12:24:12;15.10;86.40
4079;DHT22;2054;47.858;11.156;2024-02-26T12:26:40;15.00;85.90
4079;DHT22;2054;47.858;11.156;2024-02-26T12:29:07;15.00;87.20
4079;DHT22;2054;47.858;11.156;2024-02-26T12:31:35;14.80;89.80
4079;DHT22;2054;47.858;11.156;2024-02-26T12:34:06;14.80;90.10
4079;DHT22;2054;47.858;11.156;2024-02-26T12:36:35;14.80;90.30
4079;DHT22;2054;47.858;11.156;2024-02-26T12:39:03;14.80;90.00
4079;DHT22;2054;47.858;11.156;2024-02-26T12:41:32;14.80;89.40
4079;DHT22;2054;47.858;11.156;2024-02-26T12:44:00;14.90;88.00
4079;DHT22;2054;47.858;11.156;2024-02-26T12:46:27;14.90;86.60
4079;DHT22;2054;47.858;11.156;2024-02-26T12:48:56;14.80;88.70
4079;DHT22;2054;47.858;11.156;2024-02-26T12:51:26;14.80;89.70
4079;DHT22;2054;47.858;11.156;2024-02-26T12:53:55;14.80;88.90
4079;DHT22;2054;47.858;11.156;2024-02-26T12:56:22;14.70;87.80
4079;DHT22;2054;47.858;11.156;2024-02-26T12:58:50;14.60;86.60
4079;DHT22;2054;47.858;11.156;2024-02-26T13:01:21;14.60;87.40
4079;DHT22;2054;47.858;11.156;2024-02-26T13:03:49;14.70;88.80
4079;DHT22;2054;47.858;11.156;2024-02-26T13:06:16;14.80;87.60
4079;DHT22;2054;47.858;11.156;2024-02-26T13:08:45;14.80;86.60
4079;DHT22;2054;47.858;11.156;2024-02-26T13:11:12;15.00;86.70
4079;DHT22;2054;47.858;11.156;2024-02-26T13:13:39;15.10;87.50
4079;DHT22;2054;47.858;11.156;2024-02-26T13:16:09;15.20;86.90
4079;DHT22;2054;47.858;11.156;2024-02-26T13:18:36;15.30;89.50
4079;DHT22;2054;47.858;11.156;2024-02-26T13:21:08;15.30;86.60
4079;DHT22;2054;47.858;11.156;2024-02-26T13:23:35;15.30;86.80
4079;DHT22;2054;47.858;11.156;2024-02-26T13:26:04;15.20;86.60
4079;DHT22;2054;47.858;11.156;2024-02-26T13:28:32;15.10;87.80
4079;DHT22;2054;47.858;11.156;2024-02-26T13:30:58;15.10;87.10
4079;DHT22;2054;47.858;11.156;2024-02-26T13:33:27;15.10;88.40
4079;DHT22;2054;47.858;11.156;2024-02-26T13:35:56;15.00;88.40
4079;DHT22;2054;47.858;11.156;2024-02-26T13:38:23;15.00;90.00
4079;DHT22;2054;47.858;11.156;2024-02-26T13:40:50;14.90;89.40
4079;DHT22;2054;47.858;11.156;2024-02-26T13:43:19;14.90;89.40
4079;DHT22;2054;47.858;11.156;2024-02-26T13:45:46;14.80;89.60
4079;DHT22;2054;47.858;11.156;2024-02-26T13:48:13;14.80;89.60
4079;DHT22;2054;47.858;11.156;2024-02-26T13:50:43;14.70;89.90
4079;DHT22;2054;47.858;11.156;2024-02-26T13:53:10;14.70;90.00
4079;DHT22;2054;47.858;11.156;2024-02-26T13:55:38;14.60;90.10
4079;DHT22;2054;47.858;11.156;2024-02-26T13:58:08;14.60;90.10
4079;DHT22;2054;47.858;11.156;2024-02-26T14:00:36;14.60;90.00
4079;DHT22;2054;47.858;11.156;2024-02-26T14:03:03;14.60;89.80
4079;DHT22;2054;47.858;11.156;2024-02-26T14:05:31;14.50;89.40
4079;DHT22;2054;47.858;11.156;2024-02-26T14:07:58;14.40;89.40
4079;DHT22;2054;47.858;11.156;2024-02-26T14:10:25;14.40;89.50
4079;DHT22;2054;47.858;11.156;2024-02-26T14:12:52;14.30;90.30
4079;DHT22;2054;47.858;11.156;2024-02-26T14:15:21;14.10;90.40
4079;DHT22;2054;47.858;11.156;2024-02-26T14:17:51;13.90;90.80
4079;DHT22;2054;47.858;11.156;2024-02-26T14:20:22;13.70;91.80
4079;DHT22;2054;47.858;11.156;2024-02-26T14:22:49;13.60;92.70
4079;DHT22;2054;47.858;11.156;2024-02-26T14:25:16;13.20;92.90
4079;DHT22;2054;47.858;11.156;2024-02-26T14:27:43;13.10;92.80
4079;DHT22;2054;47.858;11.156;2024-02-26T14:30:11;12.90;90.80
4079;DHT22;2054;47.858;11.156;2024-02-26T14:32:38;12.20;92.90
4079;DHT22;2054;47.858;11.156;2024-02-26T14:35:08;12.10;93.40
4079;DHT22;2054;47.858;11.156;2024-02-26T14:37:35;12.00;94.90
4079;DHT22;2054;47.858;11.156;2024-02-26T14:40:04;12.00;93.10
4079;DHT22;2054;47.858;11.156;2024-02-26T14:42:31;12.00;94.70
4079;DHT22;2054;47.858;11.156;2024-02-26T14:44:58;12.00;94.80
4079;DHT22;2054;47.858;11.156;2024-02-26T14:47:25;12.00;94.80
4079;DHT22;2054;47.858;11.156;2024-02-26T14:49:52;12.10;93.50
4079;DHT22;2054;47.858;11.156;2024-02-26T14:52:21;12.00;93.90
4079;DHT22;2054;47.858;11.156;2024-02-26T14:54:48;12.00;93.70
4079;DHT22;2054;47.858;11.156;2024-02-26T14:57:16;11.90;94.50
4079;DHT22;2054;47.858;11.156;2024-02-26T14:59:43;11.60;94.40
4079;DHT22;2054;47.858;11.156;2024-02-26T15:02:10;11.50;95.00
4079;DHT22;2054;47.858;11.156;2024-02-26T15:04:37;11.50;95.50
4079;DHT22;2054;47.858;11.156;2024-02-26T15:07:04;11.50;95.60
4079;DHT22;2054;47.858;11.156;2024-02-26T15:09:32;11.50;95.80
4079;DHT22;2054;47.858;11.156;2024-02-26T15:12:00;11.40;96.00
4079;DHT22;2054;47.858;11.156;2024-02-26T15:14:28;11.40;96.10
4079;DHT22;2054;47.858;11.156;2024-02-26T15:16:55;11.30;96.10
4079;DHT22;2054;47.858;11.156;2024-02-26T15:19:22;11.40;96.20
4079;DHT22;2054;47.858;11.156;2024-02-26T15:21:48;11.50;96.50
4079;DHT22;2054;47.858;11.156;2024-02-26T15:24:16;11.60;97.20
4079;DHT22;2054;47.858;11.156;2024-02-26T15:26:44;11.60;96.60
4079;DHT22;2054;47.858;11.156;2024-02-26T15:29:11;11.50;96.60
4079;DHT22;2054;47.858;11.156;2024-02-26T15:31:39;11.40;97.00
4079;DHT22;2054;47.858;11.156;2024-02-26T15:34:05;11.20;97.40
4079;DHT22;2054;47.858;11.156;2024-02-26T15:36:33;11.20;97.90
4079;DHT22;2054;47.858;11.156;2024-02-26T15:39:01;11.30;98.10
4079;DHT22;2054;47.858;11.156;2024-02-26T15:41:28;11.30;98.20
4079;DHT22;2054;47.858;11.156;2024-02-26T15:43:58;11.40;98.20
4079;DHT22;2054;47.858;11.156;2024-02-26T15:46:27;11.40;98.60
4079;DHT22;2054;47.858;11.156;2024-02-26T15:48:55;11.40;98.70
4079;DHT22;2054;47.858;11.156;2024-02-26T15:51:22;11.40;99.20
4079;DHT22;2054;47.858;11.156;2024-02-26T15:53:50;11.30;98.80
4079;DHT22;2054;47.858;11.156;2024-02-26T15:56:17;11.30;99.00
4079;DHT22;2054;47.858;11.156;2024-02-26T15:58:49;11.20;99.00
4079;DHT22;2054;47.858;11.156;2024-02-26T16:01:18;11.10;99.10
4079;DHT22;2054;47.858;11.156;2024-02-26T16:03:45;11.10;99.80
4079;DHT22;2054;47.858;11.156;2024-02-26T16:06:18;11.10;99.90
4079;DHT22;2054;47.858;11.156;2024-02-26T16:08:46;11.00;99.90
4079;DHT22;2054;47.858;11.156;2024-02-26T16:11:15;11.00;99.90
4079;DHT22;2054;47.858;11.156;2024-02-26T16:13:43;11.00;99.90
4079;DHT22;2054;47.858;11.156;2024-02-26T16:16:13;11.00;99.90
4079;DHT22;2054;47.858;11.156;2024-02-26T16:18:44;10.90;99.90
4079;DHT22;2054;47.858;11.156;2024-02-26T16:21:11;10.90;99.90
4079;DHT22;2054;47.858;11.156;2024-02-26T16:23:38;10.90;99.90
4079;DHT22;2054;47.858;11.156;2024-02-26T16:26:05;10.80;99.90
4079;DHT22;2054;47.858;11.156;2024-02-26T16:28:32;10.80;99.90
4079;DHT22;2054;47.858;11.156;2024-02-26T16:30:59;10.80;99.90
4079;DHT22;2054;47.858;11.156;2024-02-26T16:33:27;10.80;99.90
4079;DHT22;2054;47.858;11.156;2024-02-26T16:35:55;10.80;99.90
4079;DHT22;2054;47.858;11.156;2024-02-26T16:38:23;10.80;99.90
4079;DHT22;2054;47.858;11.156;2024-02-26T16:40:50;10.80;99.90
4079;DHT22;2054;47.858;11.156;2024-02-26T16:43:18;10.80;99.90
4079;DHT22;2054;47.858;11.156;2024-02-26T16:45:47;10.80;99.90
4079;DHT22;2054;47.858;11.156;2024-02-26T16:48:14;10.80;99.90
4079;DHT22;2054;47.858;11.156;2024-02-26T16:50:41;10.80;99.90
4079;DHT22;2054;47.858;11.156;2024-02-26T16:53:09;10.70;99.90
4079;DHT22;2054;47.858;11.156;2024-02-26T16:55:37;10.60;99.90
4079;DHT22;2054;47.858;11.156;2024-02-26T16:58:04;10.20;99.90
4079;DHT22;2054;47.858;11.156;2024-02-26T17:00:31;10.40;99.90
4079;DHT22;2054;47.858;11.156;2024-02-26T17:02:58;10.30;99.90
4079;DHT22;2054;47.858;11.156;2024-02-26T17:05:26;10.30;99.90
4079;DHT22;2054;47.858;11.156;2024-02-26T17:07:56;10.30;99.90
4079;DHT22;2054;47.858;11.156;2024-02-26T17:10:24;10.20;99.90
4079;DHT22;2054;47.858;11.156;2024-02-26T17:12:51;10.10;99.90
4079;DHT22;2054;47.858;11.156;2024-02-26T17:15:18;10.10;99.90
4079;DHT22;2054;47.858;11.156;2024-02-26T17:17:45;10.10;99.90
4079;DHT22;2054;47.858;11.156;2024-02-26T17:20:12;10.10;99.90
4079;DHT22;2054;47.858;11.156;2024-02-26T17:22:39;10.10;99.90
4079;DHT22;2054;47.858;11.156;2024-02-26T17:25:07;10.10;99.90
4079;DHT22;2054;47.858;11.156;2024-02-26T17:27:40;10.10;99.90
4079;DHT22;2054;47.858;11.156;2024-02-26T17:30:07;10.10;99.90
4079;DHT22;2054;47.858;11.156;2024-02-26T17:32:34;10.00;99.90
4079;DHT22;2054;47.858;11.156;2024-02-26T17:35:01;9.90;99.90
4079;DHT22;2054;47.858;11.156;2024-02-26T17:37:29;9.90;99.90
4079;DHT22;2054;47.858;11.156;2024-02-26T17:39:56;9.80;99.90
4079;DHT22;2054;47.858;11.156;2024-02-26T17:42:23;9.80;99.90
4079;DHT22;2054;47.858;11.156;2024-02-26T17:44:51;9.70;99.90
4079;DHT22;2054;47.858;11.156;2024-02-26T17:47:19;9.70;99.90
4079;DHT22;2054;47.858;11.156;2024-02-26T17:49:46;9.60;99.90
4079;DHT22;2054;47.858;11.156;2024-02-26T17:52:13;9.50;99.90
4079;DHT22;2054;47.858;11.156;2024-02-26T17:54:40;9.40;99.90
4079;DHT22;2054;47.858;11.156;2024-02-26T17:57:09;9.40;99.90
4079;DHT22;2054;47.858;11.156;2024-02-26T17:59:36;9.40;99.90
4079;DHT22;2054;47.858;11.156;2024-02-26T18:02:04;9.30;99.90
4079;DHT22;2054;47.858;11.156;2024-02-26T18:04:32;9.30;99.90
4079;DHT22;2054;47.858;11.156;2024-02-26T18:07:00;9.20;99.90
4079;DHT22;2054;47.858;11.156;2024-02-26T18:09:27;9.20;99.90
4079;DHT22;2054;47.858;11.156;2024-02-26T18:11:54;9.10;99.90
4079;DHT22;2054;47.858;11.156;2024-02-26T18:14:22;9.00;99.90
4079;DHT22;2054;47.858;11.156;2024-02-26T18:16:49;9.00;99.90
4079;DHT22;2054;47.858;11.156;2024-02-26T18:19:17;9.10;99.90
4079;DHT22;2054;47.858;11.156;2024-02-26T18:21:44;9.10;99.90
4079;DHT22;2054;47.858;11.156;2024-02-26T18:24:11;9.00;99.90
4079;DHT22;2054;47.858;11.156;2024-02-26T18:26:38;9.00;99.90
4079;DHT22;2054;47.858;11.156;2024-02-26T18:29:05;9.00;99.90
4079;DHT22;2054;47.858;11.156;2024-02-26T18:31:35;9.00;99.90
4079;DHT22;2054;47.858;11.156;2024-02-26T18:34:02;9.00;99.90
4079;DHT22;2054;47.858;11.156;2024-02-26T18:36:31;8.90;99.90
4079;DHT22;2054;47.858;11.156;2024-02-26T18:38:57;9.00;99.90
4079;DHT22;2054;47.858;11.156;2024-02-26T18:41:24;8.90;99.90
4079;DHT22;2054;47.858;11.156;2024-02-26T18:43:52;8.70;99.90
4079;DHT22;2054;47.858;11.156;2024-02-26T18:46:20;8.60;99.90
4079;DHT22;2054;47.858;11.156;2024-02-26T18:48:47;8.50;99.90
4079;DHT22;2054;47.858;11.156;2024-02-26T18:51:14;8.50;99.90
4079;DHT22;2054;47.858;11.156;2024-02-26T18:53:43;8.30;99.90
4079;DHT22;2054;47.858;11.156;2024-02-26T18:56:11;8.20;99.90
4079;DHT22;2054;47.858;11.156;2024-02-26T18:58:39;8.10;99.90
4079;DHT22;2054;47.858;11.156;2024-02-26T19:01:09;8.00;99.90
4079;DHT22;2054;47.858;11.156;2024-02-26T19:03:36;8.00;99.90
4079;DHT22;2054;47.858;11.156;2024-02-26T19:06:03;8.00;99.90
4079;DHT22;2054;47.858;11.156;2024-02-26T19:08:31;8.00;99.90
4079;DHT22;2054;47.858;11.156;2024-02-26T19:11:00;8.00;99.90
4079;DHT22;2054;47.858;11.156;2024-02-26T19:13:27;8.00;99.90
4079;DHT22;2054;47.858;11.156;2024-02-26T19:15:54;8.10;99.90
4079;DHT22;2054;47.858;11.156;2024-02-26T19:18:21;8.10;99.90
4079;DHT22;2054;47.858;11.156;2024-02-26T19:20:48;8.10;99.90
4079;DHT22;2054;47.858;11.156;2024-02-26T19:23:18;8.30;99.90
4079;DHT22;2054;47.858;11.156;2024-02-26T19:25:45;8.00;99.90
4079;DHT22;2054;47.858;11.156;2024-02-26T19:28:14;7.60;99.90
4079;DHT22;2054;47.858;11.156;2024-02-26T19:30:42;8.10;99.90
4079;DHT22;2054;47.858;11.156;2024-02-26T19:33:09;7.90;99.90
4079;DHT22;2054;47.858;11.156;2024-02-26T19:35:37;7.80;99.90
4079;DHT22;2054;47.858;11.156;2024-02-26T19:38:06;8.10;99.90
4079;DHT22;2054;47.858;11.156;2024-02-26T19:40:33;8.00;99.90
4079;DHT22;2054;47.858;11.156;2024-02-26T19:42:59;8.00;99.90
4079;DHT22;2054;47.858;11.156;2024-02-26T19:45:28;7.90;99.90